Time;durP1;ratioP1;P1;durP2;ratioP2;P2;SDS_P1;SDS_P2;PMS_P1;PMS_P2;Temp;Humidity;BMP_temperature;BMP_pressure;BME280_temperature;BME280_humidity;BME280_pressure;Samples;Min_cycle;Max_cycle;Signal;HPM_P1;HPM_P2
2021/09/22 00:00:16;;;;;;;21.53;11.77;;;5.90;96.50;;;;;;2065016;28;20646;-65
2021/09/22 00:01:16;;;;;;;20.17;10.93;;;5.90;96.60;;;;;;2064769;28;20656;-65
2021/09/22 00:02:17;;;;;;;18.00;10.97;;;5.90;96.70;;;;;;2065143;28;20223;-67
2021/09/22 00:03:18;;;;;;;19.10;12.00;;;5.90;96.80;;;;;;2065040;28;20549;-65
2021/09/22 00:04:18;;;;;;;19.90;11.50;;;5.90;96.90;;;;;;2065108;28;20584;-65
2021/09/22 00:05:19;;;;;;;21.50;12.17;;;6.00;97.00;;;;;;2064792;28;20179;-66
2021/09/22 00:06:20;;;;;;;21.93;12.17;;;6.00;97.00;;;;;;2065115;28;20630;-66
2021/09/22 00:07:20;;;;;;;18.10;11.53;;;6.00;96.90;;;;;;2065171;28;20175;-66
2021/09/22 00:08:21;;;;;;;17.13;10.67;;;6.00;96.80;;;;;;2065067;28;20676;-66
2021/09/22 00:09:22;;;;;;;20.73;11.00;;;6.00;96.70;;;;;;2065028;28;20373;-65
2021/09/22 00:10:22;;;;;;;18.73;11.40;;;6.00;96.50;;;;;;2064484;28;20191;-66
2021/09/22 00:11:23;;;;;;;19.03;10.97;;;6.00;96.40;;;;;;2064043;28;20232;-67
2021/09/22 00:12:24;;;;;;;20.43;11.57;;;6.00;96.40;;;;;;2064987;28;20245;-66
2021/09/22 00:13:25;;;;;;;18.77;10.77;;;6.00;96.40;;;;;;2064934;28;20183;-65
2021/09/22 00:14:26;;;;;;;17.30;9.50;;;6.00;96.60;;;;;;2065530;28;20185;-66
2021/09/22 00:15:27;;;;;;;17.77;10.63;;;6.00;96.50;;;;;;2065338;28;20183;-65
2021/09/22 00:16:28;;;;;;;19.35;11.48;;;6.00;96.40;;;;;;2065018;28;20255;-67
2021/09/22 00:17:29;;;;;;;14.73;9.75;;;6.00;96.40;;;;;;2065006;28;20244;-65
2021/09/22 00:18:30;;;;;;;18.17;11.63;;;6.00;96.40;;;;;;2064862;28;20239;-66
2021/09/22 00:19:31;;;;;;;23.67;11.73;;;5.90;96.50;;;;;;2065015;28;20202;-66
2021/09/22 00:20:32;;;;;;;20.17;11.30;;;6.00;96.60;;;;;;2064922;28;20171;-65
2021/09/22 00:21:32;;;;;;;20.38;11.45;;;6.00;96.70;;;;;;2064613;28;20233;-66
2021/09/22 00:22:33;;;;;;;23.13;11.70;;;5.90;96.70;;;;;;2064871;28;20237;-65
2021/09/22 00:23:34;;;;;;;18.40;11.13;;;5.90;96.70;;;;;;2065024;28;20590;-66
2021/09/22 00:24:35;;;;;;;19.57;10.50;;;5.90;96.70;;;;;;2064923;28;20186;-65
2021/09/22 00:25:37;;;;;;;16.17;9.68;;;5.90;96.70;;;;;;2064941;28;20192;-66
2021/09/22 00:26:38;;;;;;;20.17;11.60;;;5.90;96.60;;;;;;2064125;28;20182;-67
2021/09/22 00:27:38;;;;;;;17.57;9.60;;;5.90;96.70;;;;;;2064383;28;20602;-66
2021/09/22 00:28:39;;;;;;;20.47;10.80;;;5.90;96.60;;;;;;2064876;28;20241;-65
2021/09/22 00:29:40;;;;;;;16.63;10.20;;;5.90;97.10;;;;;;2064973;28;20181;-66
2021/09/22 00:30:41;;;;;;;16.70;9.93;;;5.90;96.50;;;;;;2064944;28;20181;-65
2021/09/22 00:31:42;;;;;;;17.80;10.20;;;5.90;96.50;;;;;;2064711;28;20700;-65
2021/09/22 00:32:46;;;;;;;16.30;10.47;;;5.90;96.60;;;;;;2064073;28;20281;-66
2021/09/22 00:33:46;;;;;;;18.27;9.48;;;5.90;96.50;;;;;;2064319;28;20640;-66
2021/09/22 00:34:47;;;;;;;16.53;9.50;;;5.90;96.40;;;;;;2064887;28;20191;-66
2021/09/22 00:35:47;;;;;;;22.07;10.07;;;5.90;96.50;;;;;;2064942;28;20186;-65
2021/09/22 00:36:49;;;;;;;17.07;9.40;;;5.90;96.30;;;;;;2064917;28;20189;-66
2021/09/22 00:37:49;;;;;;;15.88;8.93;;;5.90;96.30;;;;;;2064878;28;20188;-65
2021/09/22 00:38:50;;;;;;;13.33;8.83;;;5.80;96.20;;;;;;2064871;28;20210;-66
2021/09/22 00:39:51;;;;;;;12.80;8.27;;;5.80;96.10;;;;;;2064931;28;20184;-66
2021/09/22 00:40:52;;;;;;;12.73;7.90;;;5.70;96.10;;;;;;2064852;28;20177;-65
2021/09/22 00:41:52;;;;;;;14.65;8.70;;;5.70;96.10;;;;;;2064571;28;20171;-66
2021/09/22 00:42:53;;;;;;;15.10;8.33;;;5.70;96.00;;;;;;2064704;28;20232;-65
2021/09/22 00:43:54;;;;;;;15.13;8.67;;;5.70;96.00;;;;;;2065054;28;20178;-65
2021/09/22 00:45:06;;;;;;;15.77;9.23;;;5.70;96.00;;;;;;2064859;28;20539;-65
2021/09/22 00:46:07;;;;;;;14.60;9.13;;;5.70;96.30;;;;;;2072342;28;20176;-66
2021/09/22 00:47:08;;;;;;;14.70;9.67;;;5.70;96.30;;;;;;2072313;28;20263;-65
2021/09/22 00:48:09;;;;;;;16.87;9.03;;;5.70;96.40;;;;;;2064776;28;20265;-67
2021/09/22 00:49:09;;;;;;;15.40;8.97;;;5.60;96.40;;;;;;2064801;28;20316;-66
2021/09/22 00:50:11;;;;;;;14.00;8.53;;;5.60;96.20;;;;;;2064955;28;20178;-65
2021/09/22 00:51:12;;;;;;;17.05;9.68;;;5.60;96.20;;;;;;2064554;28;20662;-66
2021/09/22 00:52:16;;;;;;;17.15;9.43;;;5.60;96.20;;;;;;2065249;28;20189;-65
2021/09/22 00:53:17;;;;;;;14.88;9.30;;;5.60;96.30;;;;;;2066386;28;20202;-64
2021/09/22 00:54:18;;;;;;;15.38;8.82;;;5.60;96.40;;;;;;2066394;28;20185;-65
2021/09/22 00:55:18;;;;;;;17.47;9.33;;;5.60;96.50;;;;;;2066427;28;20229;-66
2021/09/22 00:56:21;;;;;;;15.27;9.43;;;5.60;96.60;;;;;;2066465;28;20277;-65
2021/09/22 00:57:22;;;;;;;19.20;10.95;;;5.60;96.70;;;;;;2065848;28;20598;-65
2021/09/22 00:58:24;;;;;;;21.10;9.77;;;5.50;97.00;;;;;;2057769;28;20274;-66
2021/09/22 00:59:25;;;;;;;14.77;9.77;;;5.50;97.20;;;;;;2064066;28;20191;-65
2021/09/22 01:00:29;;;;;;;19.60;11.40;;;5.60;97.40;;;;;;2057875;28;20185;-65
2021/09/22 01:01:30;;;;;;;17.02;9.63;;;5.50;97.50;;;;;;2058107;28;20673;-66
2021/09/22 01:02:31;;;;;;;20.53;11.20;;;5.60;97.60;;;;;;2058388;28;20307;-65
2021/09/22 01:03:32;;;;;;;18.23;10.83;;;5.60;97.60;;;;;;2058502;28;20233;-66
2021/09/22 01:04:34;;;;;;;18.08;10.65;;;5.60;97.60;;;;;;2058408;28;20183;-66
2021/09/22 01:05:38;;;;;;;17.83;10.10;;;5.60;97.50;;;;;;2057736;28;20191;-66
2021/09/22 01:06:38;;;;;;;20.58;10.98;;;5.60;97.40;;;;;;2057841;28;20182;-65
2021/09/22 01:07:39;;;;;;;24.10;11.80;;;5.70;97.70;;;;;;2058360;28;20190;-66
2021/09/22 01:08:41;;;;;;;22.60;11.87;;;5.70;97.10;;;;;;2058480;28;20186;-66
2021/09/22 01:09:42;;;;;;;19.85;11.52;;;5.70;97.10;;;;;;2058323;28;20234;-65
2021/09/22 01:10:49;;;;;;;20.10;10.50;;;5.70;97.10;;;;;;2058291;28;20195;-65
2021/09/22 01:11:50;;;;;;;23.05;11.25;;;5.70;96.90;;;;;;2062580;28;20581;-65
2021/09/22 01:12:50;;;;;;;17.83;10.53;;;5.70;96.90;;;;;;2065669;28;20209;-64
2021/09/22 01:13:51;;;;;;;22.17;10.63;;;5.70;96.90;;;;;;2065895;28;20190;-66
2021/09/22 01:14:52;;;;;;;20.55;12.10;;;5.70;96.90;;;;;;2066378;28;20193;-65
2021/09/22 01:15:53;;;;;;;20.57;11.33;;;5.70;97.00;;;;;;2066404;28;20221;-66
2021/09/22 01:16:54;;;;;;;20.77;11.67;;;5.70;97.50;;;;;;2066369;28;20667;-66
2021/09/22 01:17:56;;;;;;;16.38;9.95;;;5.70;97.10;;;;;;2066423;28;20182;-65
2021/09/22 01:18:56;;;;;;;18.27;10.57;;;5.70;97.00;;;;;;2066366;28;20304;-65
2021/09/22 01:20:06;;;;;;;15.53;10.17;;;5.70;97.50;;;;;;2066371;28;20185;-66
2021/09/22 01:21:07;;;;;;;20.40;10.77;;;5.70;97.40;;;;;;2065573;28;20752;-65
2021/09/22 01:22:07;;;;;;;20.40;11.23;;;5.70;96.70;;;;;;2065744;28;20178;-66
2021/09/22 01:23:08;;;;;;;20.77;10.67;;;5.80;96.70;;;;;;2066337;28;20240;-65
2021/09/22 01:24:09;;;;;;;15.20;9.83;;;5.70;96.90;;;;;;2066418;28;20171;-66
2021/09/22 01:25:12;;;;;;;14.60;9.27;;;5.70;96.80;;;;;;2066311;28;20171;-65
2021/09/22 01:26:13;;;;;;;17.17;9.52;;;5.70;96.60;;;;;;2066311;28;20181;-66
2021/09/22 01:27:14;;;;;;;14.60;9.67;;;5.70;96.60;;;;;;2066441;28;20553;-65
2021/09/22 01:28:19;;;;;;;13.90;9.03;;;5.70;96.50;;;;;;2066290;28;20194;-65
2021/09/22 01:29:20;;;;;;;13.95;8.73;;;5.70;96.40;;;;;;2066449;28;20178;-64
2021/09/22 01:30:22;;;;;;;16.83;9.07;;;5.70;96.30;;;;;;2066352;28;20194;-65
2021/09/22 01:31:23;;;;;;;13.68;8.93;;;5.60;96.20;;;;;;2066026;28;20216;-65
2021/09/22 01:32:23;;;;;;;14.47;9.13;;;5.60;96.20;;;;;;2065668;28;20216;-66
2021/09/22 01:33:24;;;;;;;12.67;7.97;;;5.60;96.10;;;;;;2065554;28;20182;-64
2021/09/22 01:34:25;;;;;;;17.10;8.87;;;5.60;96.10;;;;;;2065555;28;20193;-64
2021/09/22 01:35:32;;;;;;;16.80;8.67;;;5.50;96.10;;;;;;2065517;28;20727;-66
2021/09/22 01:36:33;;;;;;;16.15;9.48;;;5.60;96.20;;;;;;2066281;28;20175;-66
2021/09/22 01:37:34;;;;;;;15.88;9.30;;;5.50;96.20;;;;;;2066180;28;20265;-65
2021/09/22 01:38:35;;;;;;;19.53;10.77;;;5.50;96.20;;;;;;2066153;28;20553;-65
2021/09/22 01:39:41;;;;;;;18.90;10.33;;;5.50;96.30;;;;;;2066200;28;20178;-65
2021/09/22 01:40:53;;;;;;;16.08;9.98;;;5.50;96.30;;;;;;2066374;28;20190;-66
2021/09/22 01:41:53;;;;;;;19.08;10.15;;;5.50;96.40;;;;;;2066057;28;20180;-66
2021/09/22 01:42:54;;;;;;;18.50;10.70;;;5.50;96.40;;;;;;2066073;28;20198;-66
2021/09/22 01:43:55;;;;;;;20.13;10.63;;;5.40;96.40;;;;;;2066301;28;20189;-65
2021/09/22 01:44:56;;;;;;;17.90;10.50;;;5.50;96.40;;;;;;2066299;28;20213;-66
2021/09/22 01:45:59;;;;;;;14.67;9.80;;;5.50;96.40;;;;;;2066141;28;20182;-65
2021/09/22 01:47:00;;;;;;;16.30;9.68;;;5.50;96.40;;;;;;2066147;28;20185;-67
2021/09/22 01:48:06;;;;;;;19.25;10.25;;;5.50;96.50;;;;;;2066226;28;20184;-65
2021/09/22 01:49:07;;;;;;;16.95;10.07;;;5.50;96.40;;;;;;2066146;28;20200;-66
2021/09/22 01:50:16;;;;;;;16.17;9.77;;;5.50;96.50;;;;;;2066159;28;20187;-67
2021/09/22 01:51:17;;;;;;;15.05;8.80;;;5.50;96.40;;;;;;2065787;28;20441;-66
2021/09/22 01:52:18;;;;;;;15.88;8.98;;;5.50;96.20;;;;;;2066153;28;20186;-66
2021/09/22 01:53:19;;;;;;;15.33;9.50;;;5.50;96.10;;;;;;2066092;28;20189;-65
2021/09/22 01:54:19;;;;;;;13.10;8.93;;;5.50;96.10;;;;;;2065607;28;20193;-65
2021/09/22 01:55:22;;;;;;;17.90;9.30;;;5.40;96.10;;;;;;2065502;28;20186;-67
2021/09/22 01:56:23;;;;;;;16.10;9.68;;;5.50;96.10;;;;;;2073600;28;20672;-66
2021/09/22 01:57:24;;;;;;;14.80;8.60;;;5.40;96.10;;;;;;2073531;28;20182;-66
2021/09/22 01:58:26;;;;;;;16.00;8.80;;;5.40;96.10;;;;;;2065979;28;20193;-65
2021/09/22 01:59:27;;;;;;;14.88;9.82;;;5.40;96.20;;;;;;2065617;28;20264;-65
2021/09/22 02:00:28;;;;;;;15.77;9.30;;;5.40;96.20;;;;;;2057440;28;20253;-66
2021/09/22 02:01:28;;;;;;;16.80;9.80;;;5.40;96.10;;;;;;2065248;28;20188;-66
2021/09/22 02:02:29;;;;;;;16.10;10.10;;;5.40;96.20;;;;;;2065861;28;20332;-65
2021/09/22 02:03:30;;;;;;;19.37;10.40;;;5.40;96.10;;;;;;2065176;28;20273;-65
2021/09/22 02:04:31;;;;;;;19.67;10.98;;;5.40;96.20;;;;;;2065480;28;20248;-66
2021/09/22 02:05:32;;;;;;;18.97;10.40;;;5.40;96.30;;;;;;2066003;28;20196;-64
2021/09/22 02:06:32;;;;;;;21.50;11.00;;;5.40;96.40;;;;;;2066039;28;20193;-65
2021/09/22 02:07:33;;;;;;;19.37;10.50;;;5.30;96.50;;;;;;2066030;28;20432;-66
2021/09/22 02:08:35;;;;;;;17.10;10.67;;;5.30;96.50;;;;;;2065321;28;20670;-66
2021/09/22 02:09:35;;;;;;;18.55;10.25;;;5.30;96.50;;;;;;2057440;28;20438;-66
2021/09/22 02:10:37;;;;;;;19.80;9.77;;;5.30;96.40;;;;;;2065326;28;20185;-64
2021/09/22 02:11:37;;;;;;;17.20;10.02;;;5.30;96.40;;;;;;2065113;28;20186;-65
2021/09/22 02:12:38;;;;;;;17.17;9.57;;;5.40;96.40;;;;;;2065257;28;20217;-67
2021/09/22 02:13:39;;;;;;;15.60;8.97;;;5.40;96.30;;;;;;2065946;28;20196;-66
2021/09/22 02:14:39;;;;;;;17.17;9.93;;;5.40;96.30;;;;;;2066010;28;20689;-65
2021/09/22 02:15:40;;;;;;;16.87;9.40;;;5.40;96.30;;;;;;2066025;28;20186;-66
2021/09/22 02:16:41;;;;;;;15.63;10.10;;;5.40;96.20;;;;;;2065927;28;20240;-65
2021/09/22 02:17:42;;;;;;;17.73;10.47;;;5.40;96.20;;;;;;2066039;28;20178;-65
2021/09/22 02:18:42;;;;;;;20.77;9.73;;;5.40;95.90;;;;;;2065760;28;20216;-67
2021/09/22 02:19:43;;;;;;;14.57;9.60;;;5.40;95.80;;;;;;2065970;28;20182;-65
2021/09/22 02:20:44;;;;;;;18.35;10.25;;;5.40;95.60;;;;;;2065970;28;20446;-65
2021/09/22 02:21:45;;;;;;;19.00;8.90;;;5.40;95.60;;;;;;2065666;28;20185;-66
2021/09/22 02:22:46;;;;;;;16.43;9.43;;;5.40;95.60;;;;;;2065813;28;20198;-65
2021/09/22 02:23:47;;;;;;;17.97;9.27;;;5.40;95.80;;;;;;2065925;28;20179;-65
2021/09/22 02:24:47;;;;;;;16.77;10.07;;;5.30;95.90;;;;;;2065820;28;20182;-66
2021/09/22 02:25:48;;;;;;;22.60;11.53;;;5.30;96.00;;;;;;2065357;28;20423;-66
2021/09/22 02:26:51;;;;;;;18.53;10.57;;;5.30;96.50;;;;;;2065294;28;20174;-66
2021/09/22 02:27:52;;;;;;;16.05;9.50;;;5.30;96.20;;;;;;2073511;28;20267;-65
2021/09/22 02:28:53;;;;;;;18.03;10.00;;;5.30;96.30;;;;;;2073044;28;20687;-65
2021/09/22 02:29:53;;;;;;;18.90;10.30;;;5.20;96.40;;;;;;2065934;28;20178;-66
2021/09/22 02:30:54;;;;;;;20.20;11.07;;;5.20;96.40;;;;;;2065326;28;20459;-65
2021/09/22 02:31:55;;;;;;;17.00;10.00;;;5.20;96.40;;;;;;2065087;28;20185;-66
2021/09/22 02:32:56;;;;;;;19.03;10.73;;;5.20;96.30;;;;;;2065697;28;20206;-65
2021/09/22 02:33:56;;;;;;;18.03;11.00;;;5.20;96.30;;;;;;2066023;28;20274;-65
2021/09/22 02:34:57;;;;;;;19.17;10.67;;;5.20;96.30;;;;;;2063192;28;20194;-66
2021/09/22 02:35:58;;;;;;;18.40;10.33;;;5.20;96.30;;;;;;2065618;28;20568;-65
2021/09/22 02:36:58;;;;;;;17.57;10.40;;;5.20;96.40;;;;;;2065662;28;20684;-65
2021/09/22 02:37:59;;;;;;;17.70;9.70;;;5.20;96.50;;;;;;2065761;28;20170;-66
2021/09/22 02:39:00;;;;;;;16.50;9.10;;;5.20;96.50;;;;;;2065642;28;20219;-66
2021/09/22 02:40:03;;;;;;;16.70;9.90;;;5.10;96.60;;;;;;2065670;28;20231;-65
2021/09/22 02:41:04;;;;;;;17.48;9.32;;;5.10;96.50;;;;;;2065393;28;20496;-65
2021/09/22 02:42:05;;;;;;;16.50;9.37;;;5.10;96.50;;;;;;2065830;28;20193;-67
2021/09/22 02:43:06;;;;;;;20.55;9.90;;;5.10;96.40;;;;;;2065593;28;20236;-65
2021/09/22 02:44:07;;;;;;;16.50;9.55;;;5.10;96.30;;;;;;2065768;28;20177;-65
2021/09/22 02:45:09;;;;;;;15.70;9.60;;;5.10;96.30;;;;;;2065604;28;20664;-65
2021/09/22 02:46:09;;;;;;;17.05;9.77;;;5.10;96.30;;;;;;2065082;28;20174;-65
2021/09/22 02:47:10;;;;;;;17.47;10.03;;;5.10;96.40;;;;;;2065223;28;20665;-65
2021/09/22 02:48:11;;;;;;;18.33;9.53;;;5.10;96.40;;;;;;2065236;28;20208;-65
2021/09/22 02:49:12;;;;;;;16.17;9.75;;;5.10;96.30;;;;;;2065024;28;20181;-65
2021/09/22 02:50:17;;;;;;;18.43;9.70;;;5.10;96.50;;;;;;2065078;28;20198;-65
2021/09/22 02:51:17;;;;;;;21.20;11.57;;;5.10;96.90;;;;;;2064779;28;20676;-66
2021/09/22 02:52:18;;;;;;;20.13;9.70;;;5.10;96.50;;;;;;2065661;28;20217;-65
2021/09/22 02:53:19;;;;;;;21.33;11.30;;;5.10;96.60;;;;;;2065653;28;20198;-66
2021/09/22 02:54:20;;;;;;;21.27;10.27;;;5.10;96.30;;;;;;2065709;28;20181;-65
2021/09/22 02:55:20;;;;;;;17.37;10.10;;;5.20;96.10;;;;;;2065648;28;20185;-65
2021/09/22 02:56:21;;;;;;;18.43;10.80;;;5.20;96.20;;;;;;2065546;28;20256;-66
2021/09/22 02:57:22;;;;;;;17.20;10.17;;;5.20;96.30;;;;;;2065552;28;20182;-66
2021/09/22 02:58:23;;;;;;;22.30;11.07;;;5.20;96.30;;;;;;2065622;28;20196;-66
2021/09/22 02:59:23;;;;;;;17.03;10.53;;;5.20;96.30;;;;;;2065467;28;20275;-66
2021/09/22 03:00:24;;;;;;;19.20;10.73;;;5.20;96.40;;;;;;2065643;28;20280;-65
2021/09/22 03:01:25;;;;;;;21.87;11.10;;;5.10;96.30;;;;;;2065303;28;20182;-65
2021/09/22 03:02:25;;;;;;;16.63;10.00;;;5.10;96.30;;;;;;2065487;28;20213;-66
2021/09/22 03:03:27;;;;;;;18.93;11.07;;;5.10;96.30;;;;;;2065607;28;20179;-65
2021/09/22 03:04:28;;;;;;;19.10;10.55;;;5.10;96.30;;;;;;2065490;28;20293;-66
2021/09/22 03:05:30;;;;;;;19.17;11.20;;;5.10;96.30;;;;;;2060915;28;20185;-64
2021/09/22 03:06:31;;;;;;;19.98;11.52;;;5.10;96.30;;;;;;2056794;28;20190;-66
2021/09/22 03:07:32;;;;;;;25.17;11.88;;;5.10;96.40;;;;;;2056894;28;20751;-66
2021/09/22 03:08:32;;;;;;;20.93;11.57;;;5.10;96.50;;;;;;2057436;28;20182;-65
2021/09/22 03:09:33;;;;;;;19.23;11.07;;;5.10;96.50;;;;;;2057541;28;20211;-65
2021/09/22 03:10:34;;;;;;;22.70;12.03;;;5.10;96.50;;;;;;2057414;28;20182;-66
2021/09/22 03:11:35;;;;;;;20.03;10.87;;;5.10;96.50;;;;;;2056514;28;20588;-65
2021/09/22 03:12:35;;;;;;;19.53;10.13;;;5.00;96.50;;;;;;2056750;28;20205;-66
2021/09/22 03:13:39;;;;;;;17.57;10.27;;;5.00;96.50;;;;;;2057646;28;20277;-65
2021/09/22 03:14:39;;;;;;;17.23;10.15;;;5.00;96.40;;;;;;2056222;28;20186;-65
2021/09/22 03:15:40;;;;;;;16.10;9.47;;;5.00;96.30;;;;;;2056515;28;20285;-65
2021/09/22 03:16:41;;;;;;;19.60;10.10;;;5.10;96.20;;;;;;2057326;28;20179;-65
2021/09/22 03:17:42;;;;;;;16.83;9.57;;;5.00;96.30;;;;;;2064155;28;20265;-65
2021/09/22 03:18:42;;;;;;;17.63;9.40;;;4.90;96.30;;;;;;2065322;28;20272;-65
2021/09/22 03:19:43;;;;;;;17.00;9.30;;;4.90;96.40;;;;;;2065477;28;20210;-65
2021/09/22 03:20:43;;;;;;;14.17;9.13;;;4.90;96.50;;;;;;2065438;28;20730;-65
2021/09/22 03:21:44;;;;;;;17.30;9.20;;;4.90;96.40;;;;;;2065178;28;20235;-66
2021/09/22 03:22:45;;;;;;;14.73;9.37;;;4.90;96.40;;;;;;2065260;28;20284;-65
2021/09/22 03:23:46;;;;;;;18.10;9.83;;;4.90;96.50;;;;;;2065412;28;20189;-65
2021/09/22 03:24:46;;;;;;;15.07;9.10;;;4.90;96.60;;;;;;2065315;28;20309;-66
2021/09/22 03:25:47;;;;;;;17.47;8.93;;;4.80;96.60;;;;;;2065411;28;20177;-66
2021/09/22 03:26:49;;;;;;;17.37;10.00;;;4.80;96.50;;;;;;2065318;28;20744;-66
2021/09/22 03:27:50;;;;;;;20.40;10.10;;;4.80;96.60;;;;;;2065472;28;20189;-67
2021/09/22 03:28:51;;;;;;;18.30;10.30;;;4.90;96.50;;;;;;2065382;28;20196;-66
2021/09/22 03:29:52;;;;;;;20.03;10.33;;;4.90;96.50;;;;;;2065552;28;20182;-65
2021/09/22 03:30:52;;;;;;;19.40;10.90;;;4.90;96.40;;;;;;2065195;28;20177;-66
2021/09/22 03:31:53;;;;;;;17.83;10.33;;;4.80;96.40;;;;;;2065153;28;20320;-66
2021/09/22 03:32:54;;;;;;;19.57;10.17;;;4.80;96.30;;;;;;2065294;28;20284;-65
2021/09/22 03:33:54;;;;;;;22.33;11.93;;;4.90;96.30;;;;;;2065371;28;20205;-65
2021/09/22 03:34:55;;;;;;;16.00;9.17;;;4.80;96.20;;;;;;2065323;28;20188;-65
2021/09/22 03:35:56;;;;;;;17.70;9.57;;;4.90;96.30;;;;;;2065428;28;20253;-65
2021/09/22 03:36:57;;;;;;;19.30;10.73;;;4.80;96.20;;;;;;2065324;28;20662;-66
2021/09/22 03:37:57;;;;;;;17.40;9.43;;;4.80;96.20;;;;;;2065206;28;20588;-65
2021/09/22 03:38:58;;;;;;;16.33;9.87;;;4.80;96.20;;;;;;2065220;28;20609;-66
2021/09/22 03:39:59;;;;;;;16.63;9.93;;;4.80;96.20;;;;;;2065373;28;20640;-65
2021/09/22 03:41:00;;;;;;;19.73;10.83;;;4.80;96.20;;;;;;2065199;28;20252;-65
2021/09/22 03:42:01;;;;;;;20.25;10.02;;;4.80;96.30;;;;;;2065245;28;20177;-65
2021/09/22 03:43:02;;;;;;;17.52;10.43;;;4.80;96.20;;;;;;2065201;28;20284;-65
2021/09/22 03:44:03;;;;;;;23.47;11.20;;;4.80;96.30;;;;;;2065304;28;20180;-66
2021/09/22 03:45:04;;;;;;;16.60;9.23;;;4.80;96.40;;;;;;2065476;28;20180;-66
2021/09/22 03:46:05;;;;;;;18.60;10.88;;;4.80;96.40;;;;;;2065268;28;20239;-65
2021/09/22 03:47:06;;;;;;;17.23;9.53;;;4.80;96.50;;;;;;2065247;28;20186;-66
2021/09/22 03:48:06;;;;;;;17.07;10.57;;;4.80;96.50;;;;;;2065170;28;20804;-67
2021/09/22 03:49:07;;;;;;;17.97;10.47;;;4.80;96.50;;;;;;2065156;28;20178;-66
2021/09/22 03:50:10;;;;;;;21.57;11.50;;;4.80;96.50;;;;;;2065329;28;20199;-66
2021/09/22 03:51:11;;;;;;;19.05;10.73;;;4.80;96.50;;;;;;2072584;28;20188;-67
2021/09/22 03:52:11;;;;;;;22.33;11.80;;;4.80;96.50;;;;;;2072736;28;20238;-66
2021/09/22 03:53:15;;;;;;;21.07;11.77;;;4.70;96.70;;;;;;2065346;28;20479;-64
2021/09/22 03:54:16;;;;;;;24.23;11.70;;;4.70;96.70;;;;;;2065086;28;20193;-65
2021/09/22 03:55:17;;;;;;;21.37;11.73;;;4.70;96.80;;;;;;2065182;28;20265;-66
2021/09/22 03:56:18;;;;;;;24.03;12.23;;;4.70;96.90;;;;;;2065144;28;20460;-66
2021/09/22 03:57:18;;;;;;;25.57;11.93;;;4.70;97.00;;;;;;2065344;28;20200;-65
2021/09/22 03:58:19;;;;;;;21.90;11.93;;;4.80;97.00;;;;;;2065176;28;20619;-66
2021/09/22 03:59:20;;;;;;;21.43;11.63;;;4.80;97.00;;;;;;2065108;28;20205;-65
2021/09/22 04:00:21;;;;;;;22.33;11.40;;;4.80;96.90;;;;;;2065139;28;20186;-65
2021/09/22 04:01:23;;;;;;;22.60;11.18;;;4.80;96.90;;;;;;2064297;28;20181;-66
2021/09/22 04:02:23;;;;;;;21.42;10.82;;;4.80;96.80;;;;;;2064414;28;20261;-66
2021/09/22 04:03:24;;;;;;;20.73;11.33;;;4.80;96.80;;;;;;2065180;28;20178;-66
2021/09/22 04:04:25;;;;;;;21.57;11.73;;;4.80;96.80;;;;;;2065144;28;20424;-67
2021/09/22 04:05:26;;;;;;;24.37;12.20;;;4.80;96.70;;;;;;2065016;28;20186;-65
2021/09/22 04:06:26;;;;;;;23.43;12.33;;;4.80;97.10;;;;;;2065207;28;20488;-65
2021/09/22 04:07:27;;;;;;;27.33;13.03;;;4.80;96.60;;;;;;2065103;28;20641;-66
2021/09/22 04:08:28;;;;;;;26.85;12.05;;;4.80;96.70;;;;;;2065173;28;20185;-66
2021/09/22 04:09:29;;;;;;;22.13;11.30;;;4.80;96.70;;;;;;2065370;28;20186;-64
2021/09/22 04:10:29;;;;;;;23.30;12.27;;;4.80;96.80;;;;;;2065199;28;20185;-69
2021/09/22 04:11:30;;;;;;;18.53;10.03;;;4.80;96.80;;;;;;2065125;28;20600;-66
2021/09/22 04:12:31;;;;;;;26.20;12.07;;;4.80;96.70;;;;;;2065202;28;20272;-67
2021/09/22 04:13:32;;;;;;;20.77;11.47;;;4.80;96.70;;;;;;2065421;28;20236;-66
2021/09/22 04:14:33;;;;;;;25.27;12.47;;;4.80;96.70;;;;;;2065249;28;20608;-65
2021/09/22 04:15:33;;;;;;;22.00;11.20;;;4.80;96.70;;;;;;2065334;28;20271;-66
2021/09/22 04:16:34;;;;;;;22.20;11.80;;;4.80;96.60;;;;;;2064635;28;20215;-65
2021/09/22 04:17:35;;;;;;;21.73;11.77;;;4.80;96.60;;;;;;2064681;28;20276;-67
2021/09/22 04:18:37;;;;;;;21.08;10.85;;;4.80;96.50;;;;;;2065123;28;20209;-66
2021/09/22 04:19:38;;;;;;;21.08;10.70;;;4.80;96.50;;;;;;2065203;28;20256;-65
2021/09/22 04:20:38;;;;;;;20.93;12.23;;;4.80;96.60;;;;;;2065410;28;20186;-65
2021/09/22 04:21:39;;;;;;;26.67;11.47;;;4.80;96.70;;;;;;2064869;28;20204;-65
2021/09/22 04:22:40;;;;;;;27.37;11.87;;;4.80;96.60;;;;;;2065168;28;20587;-65
2021/09/22 04:23:42;;;;;;;23.70;12.87;;;4.70;96.70;;;;;;2065127;28;20180;-65
2021/09/22 04:24:42;;;;;;;24.63;11.95;;;4.70;96.80;;;;;;2065541;28;20185;-65
2021/09/22 04:25:43;;;;;;;26.67;11.87;;;4.70;97.10;;;;;;2064675;28;20221;-66
2021/09/22 04:26:44;;;;;;;30.70;12.17;;;4.70;97.00;;;;;;2065392;28;20204;-66
2021/09/22 04:27:45;;;;;;;25.03;12.53;;;4.70;97.00;;;;;;2065521;28;20189;-65
2021/09/22 04:28:45;;;;;;;23.30;11.90;;;4.70;96.90;;;;;;2065764;28;20185;-66
2021/09/22 04:29:46;;;;;;;19.97;10.43;;;4.70;96.70;;;;;;2065684;28;20185;-65
2021/09/22 04:30:47;;;;;;;24.03;11.47;;;4.80;96.70;;;;;;2065410;28;20633;-65
2021/09/22 04:31:48;;;;;;;21.90;11.45;;;4.70;96.60;;;;;;2065109;28;20200;-65
2021/09/22 04:32:49;;;;;;;25.57;12.50;;;4.80;96.60;;;;;;2065337;28;20205;-66
2021/09/22 04:33:50;;;;;;;23.70;12.67;;;4.70;96.70;;;;;;2065215;28;20259;-66
2021/09/22 04:34:50;;;;;;;27.20;12.90;;;4.70;96.70;;;;;;2065330;28;20185;-65
2021/09/22 04:35:52;;;;;;;24.20;12.40;;;4.70;96.70;;;;;;2065397;28;20181;-65
2021/09/22 04:36:53;;;;;;;20.27;11.65;;;4.70;96.80;;;;;;2065575;28;20186;-65
2021/09/22 04:37:54;;;;;;;21.87;12.20;;;4.70;96.90;;;;;;2065217;28;20548;-65
2021/09/22 04:38:55;;;;;;;21.43;11.20;;;4.70;96.90;;;;;;2065335;28;20732;-66
2021/09/22 04:39:56;;;;;;;18.83;10.57;;;4.70;96.80;;;;;;2064707;28;20212;-66
2021/09/22 04:40:57;;;;;;;20.40;10.87;;;4.70;96.70;;;;;;2064439;28;20186;-65
2021/09/22 04:41:57;;;;;;;20.37;10.70;;;4.70;96.60;;;;;;2064730;28;20641;-64
2021/09/22 04:42:59;;;;;;;18.83;10.17;;;4.70;96.40;;;;;;2064959;28;20209;-65
2021/09/22 04:44:00;;;;;;;17.77;9.93;;;4.70;96.40;;;;;;2064261;28;20609;-65
2021/09/22 04:45:02;;;;;;;20.63;10.70;;;4.60;96.40;;;;;;2064357;28;20196;-64
2021/09/22 04:46:03;;;;;;;24.23;11.85;;;4.70;96.50;;;;;;2064336;28;20186;-65
2021/09/22 04:47:05;;;;;;;21.00;11.18;;;4.70;96.50;;;;;;2056369;28;20182;-65
2021/09/22 04:48:07;;;;;;;22.95;11.32;;;4.60;96.40;;;;;;2064260;28;20170;-65
2021/09/22 04:49:10;;;;;;;26.17;12.48;;;4.60;96.40;;;;;;2064925;28;20194;-65
2021/09/22 04:50:10;;;;;;;23.95;11.93;;;4.60;96.50;;;;;;2064912;28;20236;-65
2021/09/22 04:51:11;;;;;;;22.97;11.60;;;4.60;96.50;;;;;;2064621;28;20193;-65
2021/09/22 04:52:12;;;;;;;23.37;11.80;;;4.60;96.60;;;;;;2064936;28;20232;-66
2021/09/22 04:53:12;;;;;;;23.57;12.20;;;4.60;96.70;;;;;;2064892;28;20289;-65
2021/09/22 04:54:13;;;;;;;26.57;13.17;;;4.60;96.70;;;;;;2064834;28;20272;-65
2021/09/22 04:55:14;;;;;;;24.83;12.23;;;4.60;96.60;;;;;;2064992;28;20189;-66
2021/09/22 04:56:15;;;;;;;25.37;11.57;;;4.60;96.80;;;;;;2064803;28;20552;-64
2021/09/22 04:57:16;;;;;;;21.33;11.65;;;4.60;96.70;;;;;;2063298;28;20239;-65
2021/09/22 04:58:16;;;;;;;24.47;12.40;;;4.60;96.80;;;;;;2058765;28;20240;-65
2021/09/22 04:59:17;;;;;;;26.47;12.03;;;4.50;96.70;;;;;;2056886;28;20283;-66
2021/09/22 05:00:18;;;;;;;22.93;11.93;;;4.50;96.80;;;;;;2056950;28;20181;-65
2021/09/22 05:01:19;;;;;;;23.50;12.37;;;4.50;96.90;;;;;;2056652;28;20656;-65
2021/09/22 05:02:20;;;;;;;25.10;13.13;;;4.50;96.90;;;;;;2056968;28;20374;-65
2021/09/22 05:03:20;;;;;;;27.53;12.83;;;4.50;96.90;;;;;;2056995;28;20186;-65
2021/09/22 05:04:21;;;;;;;27.97;12.73;;;4.50;96.90;;;;;;2056906;28;20244;-64
2021/09/22 05:05:22;;;;;;;26.20;13.20;;;4.50;97.00;;;;;;2056672;28;20179;-64
2021/09/22 05:06:23;;;;;;;25.03;12.23;;;4.50;96.90;;;;;;2056962;28;20186;-65
2021/09/22 05:07:23;;;;;;;22.77;12.30;;;4.50;96.90;;;;;;2056801;28;20565;-64
2021/09/22 05:08:25;;;;;;;25.80;11.70;;;4.50;96.90;;;;;;2058916;28;20194;-66
2021/09/22 05:09:25;;;;;;;21.42;11.25;;;4.60;96.90;;;;;;2072121;28;20181;-65
2021/09/22 05:10:27;;;;;;;24.77;12.27;;;4.60;96.80;;;;;;2072341;28;20302;-66
2021/09/22 05:11:27;;;;;;;24.23;12.65;;;4.60;96.80;;;;;;2064701;28;20268;-64
2021/09/22 05:12:28;;;;;;;21.67;11.40;;;4.60;96.60;;;;;;2064736;28;20194;-64
2021/09/22 05:13:29;;;;;;;20.20;10.30;;;4.60;96.60;;;;;;2064903;28;20213;-65
2021/09/22 05:14:30;;;;;;;20.67;10.90;;;4.60;96.60;;;;;;2064867;28;20187;-64
2021/09/22 05:15:30;;;;;;;20.03;10.07;;;4.60;96.60;;;;;;2064664;28;20219;-66